Time;durP1;ratioP1;P1;durP2;ratioP2;P2;SDS_P1;SDS_P2;PMS_P1;PMS_P2;Temp;Humidity;BMP_temperature;BMP_pressure;BME280_temperature;BME280_humidity;BME280_pressure;Samples;Min_cycle;Max_cycle;Signal;HPM_P1;HPM_P2
2022/08/26 00:00:09;;;;;;;;;;;22.20;99.90;;;;;;5033070;28;20012;-82
2022/08/26 00:02:35;;;;;;;;;;;22.20;99.90;;;;;;5016378;28;19921;-82
2022/08/26 00:05:00;;;;;;;;;;;22.20;99.90;;;;;;5033354;28;20281;-83
2022/08/26 00:07:26;;;;;;;;;;;22.20;99.90;;;;;;5033770;28;20332;-82
2022/08/26 00:09:52;;;;;;;;;;;22.10;99.90;;;;;;5033126;28;19921;-83
2022/08/26 00:12:17;;;;;;;;;;;22.10;99.90;;;;;;5032492;28;20273;-83
2022/08/26 00:14:43;;;;;;;;;;;22.10;99.90;;;;;;5033531;28;19944;-83
2022/08/26 00:17:08;;;;;;;;;;;22.10;99.90;;;;;;5033911;28;19921;-83
2022/08/26 00:19:34;;;;;;;;;;;22.00;99.90;;;;;;5015454;28;19921;-83
2022/08/26 00:22:02;;;;;;;;;;;22.00;99.90;;;;;;5033781;28;19921;-83
2022/08/26 00:24:27;;;;;;;;;;;22.00;99.90;;;;;;5033227;28;19972;-83
2022/08/26 00:26:53;;;;;;;;;;;22.00;99.90;;;;;;5014645;28;19984;-83
2022/08/26 00:29:19;;;;;;;;;;;21.90;99.90;;;;;;5033479;28;19925;-83
2022/08/26 00:31:45;;;;;;;;;;;21.90;99.90;;;;;;5033289;28;19953;-83
2022/08/26 00:34:11;;;;;;;;;;;21.90;99.90;;;;;;5032689;28;19964;-83
2022/08/26 00:36:38;;;;;;;;;;;21.90;99.90;;;;;;5033334;28;19967;-83
2022/08/26 00:39:05;;;;;;;;;;;21.90;99.90;;;;;;5033160;28;19921;-82
2022/08/26 00:41:31;;;;;;;;;;;21.90;99.90;;;;;;5031613;28;19968;-84
2022/08/26 00:43:57;;;;;;;;;;;21.90;99.90;;;;;;5033238;28;20365;-83
2022/08/26 00:46:25;;;;;;;;;;;21.90;99.90;;;;;;5015645;28;19921;-82
2022/08/26 00:48:52;;;;;;;;;;;21.90;99.90;;;;;;5033265;28;19931;-83
2022/08/26 00:51:20;;;;;;;;;;;21.90;99.90;;;;;;5015282;28;19924;-82
2022/08/26 00:54:12;;;;;;;;;;;21.90;99.90;;;;;;5014177;28;19924;-83
2022/08/26 00:56:41;;;;;;;;;;;21.90;99.90;;;;;;5030069;28;20047;-84
2022/08/26 00:59:07;;;;;;;;;;;21.90;99.90;;;;;;5033503;28;19921;-82
2022/08/26 01:01:33;;;;;;;;;;;21.90;99.90;;;;;;5014939;28;19925;-82
2022/08/26 01:03:59;;;;;;;;;;;21.90;99.90;;;;;;5033295;28;20388;-83
2022/08/26 01:06:26;;;;;;;;;;;21.90;99.90;;;;;;5015244;28;19928;-82
2022/08/26 01:08:51;;;;;;;;;;;21.90;99.90;;;;;;5032300;28;19932;-83
2022/08/26 01:11:17;;;;;;;;;;;21.90;99.90;;;;;;5016324;28;20357;-83
2022/08/26 01:13:42;;;;;;;;;;;21.90;99.90;;;;;;5022158;28;19925;-84
2022/08/26 01:16:10;;;;;;;;;;;21.90;99.90;;;;;;5039313;28;19921;-83
2022/08/26 01:18:38;;;;;;;;;;;21.90;99.90;;;;;;5039929;28;19921;-84
2022/08/26 01:21:21;;;;;;;;;;;21.90;99.90;;;;;;5022925;28;19975;-84
2022/08/26 01:23:49;;;;;;;;;;;21.80;99.90;;;;;;5056297;28;19972;-82
2022/08/26 01:26:17;;;;;;;;;;;21.80;99.90;;;;;;5043409;28;19943;-83
2022/08/26 01:28:43;;;;;;;;;;;21.80;99.90;;;;;;5038415;28;20007;-83
2022/08/26 01:31:13;;;;;;;;;;;21.80;99.90;;;;;;5039492;28;20012;-83
2022/08/26 01:33:49;;;;;;;;;;;21.80;99.90;;;;;;5021331;28;19921;-83
2022/08/26 01:36:15;;;;;;;;;;;21.80;99.90;;;;;;5021238;28;19921;-83
2022/08/26 01:38:41;;;;;;;;;;;21.80;99.90;;;;;;5039086;28;19925;-83
2022/08/26 01:41:08;;;;;;;;;;;21.80;99.90;;;;;;5039167;28;19927;-83
2022/08/26 01:43:36;;;;;;;;;;;21.80;99.90;;;;;;5038329;28;19924;-83
2022/08/26 01:46:02;;;;;;;;;;;21.80;99.90;;;;;;5021606;28;19975;-83
2022/08/26 01:48:28;;;;;;;;;;;21.80;99.90;;;;;;5039082;28;20335;-83
2022/08/26 01:50:54;;;;;;;;;;;21.70;99.90;;;;;;5022576;28;20018;-84
2022/08/26 01:53:23;;;;;;;;;;;21.80;99.90;;;;;;5021190;28;20008;-84
2022/08/26 01:55:51;;;;;;;;;;;21.70;99.90;;;;;;5021063;28;19921;-83
2022/08/26 01:58:21;;;;;;;;;;;21.70;99.90;;;;;;5039046;28;20083;-83
2022/08/26 02:00:47;;;;;;;;;;;21.70;99.90;;;;;;5039625;28;19925;-84
2022/08/26 02:03:17;;;;;;;;;;;21.70;99.90;;;;;;5039137;28;20254;-83
2022/08/26 02:05:59;;;;;;;;;;;21.60;99.90;;;;;;5020873;28;20007;-83
2022/08/26 02:08:31;;;;;;;;;;;21.60;99.90;;;;;;5038692;28;20312;-84
2022/08/26 02:10:57;;;;;;;;;;;21.60;99.90;;;;;;5020484;28;19921;-83
2022/08/26 02:13:24;;;;;;;;;;;21.60;99.90;;;;;;5038233;28;19940;-83
2022/08/26 02:15:50;;;;;;;;;;;21.60;99.90;;;;;;5039252;28;19917;-84
2022/08/26 02:18:17;;;;;;;;;;;21.60;99.90;;;;;;5020593;28;19921;-83
2022/08/26 02:20:42;;;;;;;;;;;21.60;99.90;;;;;;5039078;28;19925;-83
2022/08/26 02:23:08;;;;;;;;;;;21.60;99.90;;;;;;5037003;28;19928;-84
2022/08/26 02:25:40;;;;;;;;;;;21.60;99.90;;;;;;5034526;28;20400;-82
2022/08/26 02:28:06;;;;;;;;;;;21.60;99.90;;;;;;5018323;28;19921;-84
2022/08/26 02:30:57;;;;;;;;;;;21.60;99.90;;;;;;5035750;28;19956;-84
2022/08/26 02:33:23;;;;;;;;;;;21.60;99.90;;;;;;5016963;28;19921;-84
2022/08/26 02:35:48;;;;;;;;;;;21.60;99.90;;;;;;5018191;28;19974;-83
2022/08/26 02:38:14;;;;;;;;;;;21.60;99.90;;;;;;5035773;28;19928;-87
2022/08/26 02:40:40;;;;;;;;;;;21.60;99.90;;;;;;5017500;28;19921;-84
2022/08/26 02:43:06;;;;;;;;;;;21.60;99.90;;;;;;5017607;28;19928;-83
2022/08/26 02:45:32;;;;;;;;;;;21.60;99.90;;;;;;5036194;28;19917;-83
2022/08/26 02:47:57;;;;;;;;;;;21.50;99.90;;;;;;5016982;28;19921;-84
2022/08/26 02:50:24;;;;;;;;;;;21.50;99.90;;;;;;5017526;28;20372;-83
2022/08/26 02:52:50;;;;;;;;;;;21.50;99.90;;;;;;5018315;28;20015;-85
2022/08/26 02:55:15;;;;;;;;;;;21.50;99.90;;;;;;5044590;28;19955;-82
2022/08/26 02:57:41;;;;;;;;;;;21.50;99.90;;;;;;5026143;28;19921;-83
2022/08/26 03:00:11;;;;;;;;;;;21.50;99.90;;;;;;5017528;28;19951;-83
2022/08/26 03:02:36;;;;;;;;;;;21.50;99.90;;;;;;5017473;28;19921;-83
2022/08/26 03:05:03;;;;;;;;;;;21.50;99.90;;;;;;5039207;28;20008;-83
2022/08/26 03:07:28;;;;;;;;;;;21.50;99.90;;;;;;5017181;28;20899;-82
2022/08/26 03:09:54;;;;;;;;;;;21.50;99.90;;;;;;5034254;28;20499;-84
2022/08/26 03:12:19;;;;;;;;;;;21.40;99.90;;;;;;5035642;28;19921;-83
2022/08/26 03:14:48;;;;;;;;;;;21.50;99.90;;;;;;5034997;28;20380;-81
2022/08/26 03:17:14;;;;;;;;;;;21.40;99.90;;;;;;5028641;28;19963;-83
2022/08/26 03:19:40;;;;;;;;;;;21.40;99.90;;;;;;5053464;28;20472;-83
2022/08/26 03:22:06;;;;;;;;;;;21.40;99.90;;;;;;5019946;28;19956;-83
2022/08/26 03:24:31;;;;;;;;;;;21.40;99.90;;;;;;5018229;28;19959;-84
2022/08/26 03:26:57;;;;;;;;;;;21.40;99.90;;;;;;5035456;28;20288;-83
2022/08/26 03:32:07;;;;;;;;;;;21.40;99.90;;;;;;5017020;28;19921;-83
2022/08/26 03:34:32;;;;;;;;;;;21.40;99.90;;;;;;5034305;28;20004;-82
2022/08/26 03:36:58;;;;;;;;;;;21.40;99.90;;;;;;5016177;28;20389;-83
2022/08/26 03:39:24;;;;;;;;;;;21.30;99.90;;;;;;5016668;28;19925;-83
2022/08/26 03:41:50;;;;;;;;;;;21.40;99.90;;;;;;5016168;28;19921;-83
2022/08/26 03:44:16;;;;;;;;;;;21.40;99.90;;;;;;5033948;28;20288;-83
2022/08/26 03:46:41;;;;;;;;;;;21.40;99.90;;;;;;5034353;28;19927;-85
2022/08/26 03:49:07;;;;;;;;;;;21.40;99.90;;;;;;5016814;28;19917;-83
2022/08/26 03:51:33;;;;;;;;;;;21.40;99.90;;;;;;5033415;28;19967;-84
2022/08/26 03:53:59;;;;;;;;;;;21.40;99.90;;;;;;5034212;28;19928;-84
2022/08/26 03:56:26;;;;;;;;;;;21.40;99.90;;;;;;5015394;28;20347;-84
2022/08/26 03:58:52;;;;;;;;;;;21.40;99.90;;;;;;5016668;28;19964;-85
2022/08/26 04:01:17;;;;;;;;;;;21.40;99.90;;;;;;5034250;28;20000;-84
2022/08/26 04:03:58;;;;;;;;;;;21.30;99.90;;;;;;5016009;28;20016;-85
2022/08/26 04:06:24;;;;;;;;;;;21.30;99.90;;;;;;5016784;28;19925;-84
2022/08/26 04:08:49;;;;;;;;;;;21.30;99.90;;;;;;5034243;28;19943;-84
2022/08/26 04:11:19;;;;;;;;;;;21.30;99.90;;;;;;5015007;28;19921;-84
2022/08/26 04:13:45;;;;;;;;;;;21.30;99.90;;;;;;5015821;28;19921;-81
2022/08/26 04:16:11;;;;;;;;;;;21.30;99.90;;;;;;5034287;28;19925;-83
2022/08/26 04:18:37;;;;;;;;;;;21.20;99.90;;;;;;5033072;28;19966;-82
2022/08/26 04:21:05;;;;;;;;;;;21.20;99.90;;;;;;5033902;28;19920;-83
2022/08/26 04:23:31;;;;;;;;;;;21.30;99.90;;;;;;5016276;28;19929;-83
2022/08/26 04:25:57;;;;;;;;;;;21.30;99.90;;;;;;5016489;28;19930;-82
2022/08/26 04:28:23;;;;;;;;;;;21.30;99.90;;;;;;5051343;28;19964;-83
2022/08/26 04:30:49;;;;;;;;;;;21.20;99.90;;;;;;5035923;28;19921;-83
2022/08/26 04:33:14;;;;;;;;;;;21.20;99.90;;;;;;5032989;28;19921;-82
2022/08/26 04:35:40;;;;;;;;;;;21.20;99.90;;;;;;5015788;28;19925;-83
2022/08/26 04:38:06;;;;;;;;;;;21.20;99.90;;;;;;5015641;28;20028;-83
2022/08/26 04:40:31;;;;;;;;;;;21.10;99.90;;;;;;5031912;28;19967;-85
2022/08/26 04:42:57;;;;;;;;;;;21.20;99.90;;;;;;5015571;28;19983;-83
2022/08/26 04:45:23;;;;;;;;;;;21.20;99.90;;;;;;5033826;28;19967;-84
2022/08/26 04:47:51;;;;;;;;;;;21.20;99.90;;;;;;5034906;28;19924;-82
2022/08/26 04:50:19;;;;;;;;;;;21.20;99.90;;;;;;5033796;28;19920;-83
2022/08/26 04:52:44;;;;;;;;;;;21.10;99.90;;;;;;5015279;28;19920;-82
2022/08/26 04:55:10;;;;;;;;;;;21.10;99.90;;;;;;5014534;28;19963;-82
2022/08/26 04:57:35;;;;;;;;;;;21.10;99.90;;;;;;5032749;28;19966;-83
2022/08/26 05:00:03;;;;;;;;;;;21.10;99.90;;;;;;5014902;28;19978;-84
2022/08/26 05:02:30;;;;;;;;;;;21.10;99.90;;;;;;5015669;28;20276;-84
2022/08/26 05:04:56;;;;;;;;;;;21.20;99.90;;;;;;5015597;28;19970;-84
2022/08/26 05:07:21;;;;;;;;;;;21.10;99.90;;;;;;5032401;28;19979;-83
2022/08/26 05:09:47;;;;;;;;;;;21.00;99.90;;;;;;5014795;28;19967;-82
2022/08/26 05:12:12;;;;;;;;;;;21.10;99.90;;;;;;5032772;28;20012;-81
2022/08/26 05:14:40;;;;;;;;;;;21.10;99.90;;;;;;5032251;28;19974;-81
2022/08/26 05:17:05;;;;;;;;;;;21.10;99.90;;;;;;5015364;28;19928;-83
2022/08/26 05:19:31;;;;;;;;;;;21.10;99.90;;;;;;5032899;28;20412;-83
2022/08/26 05:21:56;;;;;;;;;;;21.20;99.90;;;;;;5032173;28;20384;-83
2022/08/26 05:24:22;;;;;;;;;;;21.10;99.90;;;;;;5032560;28;19956;-83
2022/08/26 05:26:48;;;;;;;;;;;21.10;99.90;;;;;;5014707;28;20364;-84
2022/08/26 05:29:14;;;;;;;;;;;21.10;99.90;;;;;;5014162;28;19924;-82
2022/08/26 05:31:39;;;;;;;;;;;21.10;99.90;;;;;;5032529;28;20319;-83
2022/08/26 05:34:05;;;;;;;;;;;21.10;99.90;;;;;;5000414;28;19921;-83
2022/08/26 05:36:32;;;;;;;;;;;21.10;99.90;;;;;;5012242;28;19932;-82
2022/08/26 05:38:57;;;;;;;;;;;21.10;99.90;;;;;;5012959;28;19984;-82
2022/08/26 05:41:27;;;;;;;;;;;21.10;99.90;;;;;;5012363;28;19925;-85
2022/08/26 05:43:56;;;;;;;;;;;21.10;99.90;;;;;;5012926;28;20312;-83
2022/08/26 05:46:25;;;;;;;;;;;21.10;99.90;;;;;;5013288;28;19952;-82
2022/08/26 05:48:54;;;;;;;;;;;21.10;99.90;;;;;;4994751;28;19925;-83
2022/08/26 05:51:20;;;;;;;;;;;21.10;99.90;;;;;;5013429;28;19921;-84
2022/08/26 05:53:46;;;;;;;;;;;21.10;99.90;;;;;;5012941;28;19955;-81
2022/08/26 05:56:12;;;;;;;;;;;21.10;99.90;;;;;;4994847;28;19930;-83
2022/08/26 05:58:38;;;;;;;;;;;21.10;99.90;;;;;;5016794;28;20268;-82
2022/08/26 06:01:06;;;;;;;;;;;21.10;99.90;;;;;;5036170;28;19921;-83
2022/08/26 06:03:33;;;;;;;;;;;21.10;99.90;;;;;;5017803;28;19932;-83
2022/08/26 06:06:01;;;;;;;;;;;21.20;99.90;;;;;;5016735;28;20288;-84
2022/08/26 06:08:27;;;;;;;;;;;21.20;99.90;;;;;;5015785;28;19921;-83
2022/08/26 06:10:53;;;;;;;;;;;21.20;99.90;;;;;;5015281;28;20258;-82
2022/08/26 06:13:20;;;;;;;;;;;21.10;99.90;;;;;;5035084;28;19964;-83
2022/08/26 06:15:47;;;;;;;;;;;21.20;99.90;;;;;;5036174;28;20003;-84
2022/08/26 06:18:14;;;;;;;;;;;21.10;99.90;;;;;;5017411;28;19932;-84
2022/08/26 06:20:42;;;;;;;;;;;21.10;99.90;;;;;;5018200;28;19920;-84
2022/08/26 06:25:56;;;;;;;;;;;21.20;99.90;;;;;;5017132;28;19920;-82
2022/08/26 06:28:23;;;;;;;;;;;21.20;99.90;;;;;;5035423;28;19928;-82
2022/08/26 06:30:49;;;;;;;;;;;21.20;99.90;;;;;;5041004;28;19944;-84
2022/08/26 06:33:14;;;;;;;;;;;21.20;99.90;;;;;;5018058;28;20361;-83
2022/08/26 06:35:40;;;;;;;;;;;21.30;99.90;;;;;;5018186;28;19940;-82
2022/08/26 06:38:07;;;;;;;;;;;21.30;99.90;;;;;;5017202;28;19979;-84
2022/08/26 06:40:33;;;;;;;;;;;21.30;99.90;;;;;;5034836;28;20415;-82
2022/08/26 06:42:59;;;;;;;;;;;21.30;99.90;;;;;;5035178;28;19924;-85
2022/08/26 06:45:25;;;;;;;;;;;21.40;99.90;;;;;;5034698;28;20268;-83
2022/08/26 06:47:51;;;;;;;;;;;21.40;99.90;;;;;;5036229;28;19925;-82
2022/08/26 06:50:17;;;;;;;;;;;21.40;99.90;;;;;;5035510;28;19924;-84
2022/08/26 06:52:42;;;;;;;;;;;21.40;99.90;;;;;;5017254;28;19929;-83
2022/08/26 06:55:11;;;;;;;;;;;21.50;99.90;;;;;;5016689;28;19944;-83
2022/08/26 06:57:37;;;;;;;;;;;21.50;99.90;;;;;;5017207;28;19921;-83
2022/08/26 07:00:09;;;;;;;;;;;21.40;99.90;;;;;;5034679;28;19924;-84
2022/08/26 07:02:35;;;;;;;;;;;21.50;99.90;;;;;;5035818;28;20297;-84
2022/08/26 07:05:00;;;;;;;;;;;21.40;99.90;;;;;;5018153;28;19929;-84
2022/08/26 07:07:26;;;;;;;;;;;21.50;99.90;;;;;;5017125;28;19925;-83
2022/08/26 07:09:54;;;;;;;;;;;21.40;99.90;;;;;;5034100;28;19925;-83
2022/08/26 07:12:20;;;;;;;;;;;21.50;99.90;;;;;;5034602;28;20293;-83
2022/08/26 07:14:48;;;;;;;;;;;21.40;99.90;;;;;;5016543;28;19921;-83
2022/08/26 07:17:14;;;;;;;;;;;21.40;99.90;;;;;;5035039;28;19928;-82
2022/08/26 07:19:39;;;;;;;;;;;21.40;99.90;;;;;;5035272;28;19921;-82
2022/08/26 07:22:05;;;;;;;;;;;21.40;99.90;;;;;;5017062;28;20383;-83
2022/08/26 07:24:35;;;;;;;;;;;21.40;99.90;;;;;;5034995;28;19929;-82
2022/08/26 07:27:02;;;;;;;;;;;21.40;99.90;;;;;;5035247;28;20385;-84
2022/08/26 07:29:30;;;;;;;;;;;21.40;99.90;;;;;;5017727;28;19927;-83
2022/08/26 07:31:56;;;;;;;;;;;21.40;99.90;;;;;;5044499;28;19921;-81
2022/08/26 07:34:22;;;;;;;;;;;21.40;99.90;;;;;;5050014;28;20006;-83
2022/08/26 07:36:51;;;;;;;;;;;21.40;99.90;;;;;;5034142;28;19961;-83
2022/08/26 07:39:17;;;;;;;;;;;21.40;99.90;;;;;;5019986;28;19974;-84
2022/08/26 07:41:45;;;;;;;;;;;21.40;99.90;;;;;;5018303;28;19959;-83
2022/08/26 07:44:12;;;;;;;;;;;21.40;99.90;;;;;;5035967;28;19921;-83
2022/08/26 07:46:38;;;;;;;;;;;21.40;99.90;;;;;;5034313;28;20008;-82
2022/08/26 07:49:04;;;;;;;;;;;21.40;99.90;;;;;;5033874;28;20004;-83
2022/08/26 07:51:30;;;;;;;;;;;21.40;99.90;;;;;;5034354;28;19928;-83
2022/08/26 07:53:56;;;;;;;;;;;21.50;99.90;;;;;;5016648;28;20327;-84
2022/08/26 07:56:22;;;;;;;;;;;21.50;99.90;;;;;;5015649;28;19928;-83
2022/08/26 07:58:48;;;;;;;;;;;21.50;99.90;;;;;;5016103;28;19928;-82
2022/08/26 08:01:15;;;;;;;;;;;21.60;99.90;;;;;;5033996;28;19928;-84
2022/08/26 08:03:40;;;;;;;;;;;21.70;99.90;;;;;;5033306;28;19928;-84
2022/08/26 08:06:06;;;;;;;;;;;21.70;99.90;;;;;;5034305;28;19921;-87
2022/08/26 08:08:34;;;;;;;;;;;21.80;99.90;;;;;;5033512;28;19929;-82
2022/08/26 08:11:00;;;;;;;;;;;21.80;99.90;;;;;;5032899;28;19921;-83
2022/08/26 08:13:25;;;;;;;;;;;21.80;99.90;;;;;;5039266;28;19921;-84
2022/08/26 08:15:51;;;;;;;;;;;21.80;99.90;;;;;;5016229;28;19925;-81
2022/08/26 08:18:17;;;;;;;;;;;21.80;99.90;;;;;;5015272;28;20400;-82
2022/08/26 08:20:42;;;;;;;;;;;21.90;99.90;;;;;;5033575;28;19924;-84
2022/08/26 08:23:08;;;;;;;;;;;21.90;99.90;;;;;;5033398;28;19921;-82
2022/08/26 08:25:33;;;;;;;;;;;21.90;99.90;;;;;;5032081;28;19960;-82
2022/08/26 08:27:59;;;;;;;;;;;21.90;99.90;;;;;;5033197;28;19921;-83
2022/08/26 08:30:24;;;;;;;;;;;21.90;99.90;;;;;;5033145;28;19928;-82
2022/08/26 08:32:51;;;;;;;;;;;21.90;99.90;;;;;;5032719;28;20343;-83
2022/08/26 08:35:19;;;;;;;;;;;22.00;99.90;;;;;;5033390;28;19917;-83
2022/08/26 08:37:45;;;;;;;;;;;22.00;99.90;;;;;;5032794;28;19929;-82
2022/08/26 08:40:14;;;;;;;;;;;22.00;99.90;;;;;;5014951;28;19925;-82
2022/08/26 08:42:42;;;;;;;;;;;22.00;99.90;;;;;;5033064;28;19944;-82
2022/08/26 08:45:14;;;;;;;;;;;22.00;99.90;;;;;;5032804;28;20011;-82
2022/08/26 08:47:46;;;;;;;;;;;22.00;99.90;;;;;;5033629;28;19921;-82
2022/08/26 08:50:18;;;;;;;;;;;22.00;99.90;;;;;;5033385;28;19921;-81
2022/08/26 08:52:46;;;;;;;;;;;22.00;99.90;;;;;;5032592;28;19925;-83
2022/08/26 08:55:12;;;;;;;;;;;22.00;99.90;;;;;;5032370;28;19928;-83
2022/08/26 08:57:50;;;;;;;;;;;22.00;99.90;;;;;;5015406;28;19921;-82
2022/08/26 09:00:17;;;;;;;;;;;22.00;99.90;;;;;;5032938;28;19921;-82
2022/08/26 09:02:43;;;;;;;;;;;22.00;99.90;;;;;;5016737;28;19932;-83
2022/08/26 09:05:14;;;;;;;;;;;22.00;99.90;;;;;;5032732;28;20324;-84
2022/08/26 09:07:43;;;;;;;;;;;22.00;99.90;;;;;;5018532;28;19921;-83
2022/08/26 09:10:11;;;;;;;;;;;21.90;99.90;;;;;;5014532;28;19924;-84
2022/08/26 09:12:37;;;;;;;;;;;22.00;99.90;;;;;;5032680;28;19921;-84
2022/08/26 09:15:04;;;;;;;;;;;21.90;99.90;;;;;;5014752;28;19921;-84
2022/08/26 09:17:44;;;;;;;;;;;21.90;99.90;;;;;;5014886;28;19925;-82
2022/08/26 09:20:17;;;;;;;;;;;21.90;99.90;;;;;;5014331;28;19925;-84
2022/08/26 09:22:43;;;;;;;;;;;21.80;99.90;;;;;;5015563;28;20337;-83
2022/08/26 09:25:10;;;;;;;;;;;21.80;99.90;;;;;;5032059;28;20071;-85
2022/08/26 09:27:44;;;;;;;;;;;21.80;99.90;;;;;;5014342;28;19921;-84
2022/08/26 09:30:11;;;;;;;;;;;21.70;99.90;;;;;;5032711;28;19982;-83
2022/08/26 09:32:37;;;;;;;;;;;21.70;99.90;;;;;;5033867;28;19921;-83
2022/08/26 09:35:05;;;;;;;;;;;21.70;99.90;;;;;;5035925;28;20320;-82
2022/08/26 09:37:32;;;;;;;;;;;21.60;99.90;;;;;;5018841;28;19928;-84
2022/08/26 09:40:11;;;;;;;;;;;21.60;99.90;;;;;;5018198;28;19960;-84
2022/08/26 09:42:37;;;;;;;;;;;21.60;99.90;;;;;;5018106;28;20331;-83
2022/08/26 09:45:05;;;;;;;;;;;21.60;99.90;;;;;;5036730;28;19921;-83
2022/08/26 09:47:33;;;;;;;;;;;21.50;99.90;;;;;;5036723;28;20027;-83
2022/08/26 09:50:02;;;;;;;;;;;21.50;99.90;;;;;;5018024;28;20436;-83
2022/08/26 09:52:28;;;;;;;;;;;21.50;99.90;;;;;;5036728;28;20015;-83
2022/08/26 09:55:02;;;;;;;;;;;21.50;99.90;;;;;;5039579;28;19921;-84
2022/08/26 09:57:29;;;;;;;;;;;21.50;99.90;;;;;;5019028;28;19921;-84
2022/08/26 09:59:55;;;;;;;;;;;21.50;99.90;;;;;;5036488;28;19925;-83
2022/08/26 10:02:20;;;;;;;;;;;21.60;99.90;;;;;;5035851;28;20364;-84
2022/08/26 10:04:50;;;;;;;;;;;21.60;99.90;;;;;;5036679;28;19921;-83
2022/08/26 10:07:32;;;;;;;;;;;21.70;99.90;;;;;;5036500;28;19927;-84
2022/08/26 10:09:58;;;;;;;;;;;21.80;99.90;;;;;;5034869;28;19921;-84
2022/08/26 10:12:24;;;;;;;;;;;21.70;99.90;;;;;;5018202;28;19925;-84
2022/08/26 10:14:55;;;;;;;;;;;21.70;99.90;;;;;;5018648;28;19917;-83
2022/08/26 10:17:36;;;;;;;;;;;21.70;99.90;;;;;;5035149;28;20361;-85
2022/08/26 10:20:10;;;;;;;;;;;21.70;99.90;;;;;;5018277;28;20412;-83
2022/08/26 10:22:44;;;;;;;;;;;21.80;99.90;;;;;;5018788;28;19921;-84
2022/08/26 10:25:12;;;;;;;;;;;21.80;99.90;;;;;;5034299;28;20320;-83
2022/08/26 10:27:40;;;;;;;;;;;21.80;99.90;;;;;;5035901;28;19964;-84
2022/08/26 10:30:09;;;;;;;;;;;21.70;99.90;;;;;;5018163;28;19921;-83
2022/08/26 10:32:40;;;;;;;;;;;21.70;99.90;;;;;;5035834;28;19921;-83
2022/08/26 10:35:08;;;;;;;;;;;21.70;99.90;;;;;;5019888;28;19979;-83
2022/08/26 10:37:54;;;;;;;;;;;21.60;99.90;;;;;;5057770;28;19925;-83
2022/08/26 10:40:29;;;;;;;;;;;21.70;99.90;;;;;;5023638;28;19948;-83
2022/08/26 10:42:57;;;;;;;;;;;21.60;99.90;;;;;;5035327;28;19921;-84
2022/08/26 10:45:28;;;;;;;;;;;21.60;99.90;;;;;;5033879;28;19921;-83
2022/08/26 10:47:56;;;;;;;;;;;21.60;99.90;;;;;;5017994;28;19928;-83
2022/08/26 10:50:24;;;;;;;;;;;21.60;99.90;;;;;;5035293;28;19921;-83
2022/08/26 10:53:00;;;;;;;;;;;21.60;99.90;;;;;;5034928;28;20024;-83
2022/08/26 10:55:32;;;;;;;;;;;21.60;99.90;;;;;;5034347;28;19921;-84
2022/08/26 10:58:16;;;;;;;;;;;21.60;99.90;;;;;;5035043;28;19928;-83
2022/08/26 11:03:45;;;;;;;;;;;21.60;99.90;;;;;;5017188;28;19925;-83
2022/08/26 11:06:15;;;;;;;;;;;21.60;99.90;;;;;;5016868;28;20292;-83
2022/08/26 11:08:45;;;;;;;;;;;21.60;99.90;;;;;;5017206;28;19925;-83
2022/08/26 11:11:10;;;;;;;;;;;21.60;99.90;;;;;;5034644;28;19924;-82
2022/08/26 11:13:54;;;;;;;;;;;21.60;99.90;;;;;;5015999;28;20336;-83
2022/08/26 11:16:35;;;;;;;;;;;21.70;99.90;;;;;;5017229;28;19982;-83
2022/08/26 11:19:01;;;;;;;;;;;21.60;99.90;;;;;;5035091;28;19925;-83
2022/08/26 11:22:04;;;;;;;;;;;21.50;99.90;;;;;;5016060;28;19921;-83
2022/08/26 11:24:48;;;;;;;;;;;21.50;99.90;;;;;;4976563;28;19922;-83
2022/08/26 11:27:25;;;;;;;;;;;21.50;99.90;;;;;;5031091;28;19921;-84
2022/08/26 11:30:03;;;;;;;;;;;21.60;99.90;;;;;;5034438;28;19928;-82
2022/08/26 11:32:40;;;;;;;;;;;21.60;99.90;;;;;;5017059;28;20328;-84
2022/08/26 11:35:18;;;;;;;;;;;21.70;99.90;;;;;;5033882;28;19924;-83
2022/08/26 11:37:46;;;;;;;;;;;21.80;99.90;;;;;;5023340;28;19989;-82
2022/08/26 11:40:31;;;;;;;;;;;21.80;99.90;;;;;;5015914;28;19925;-83
2022/08/26 11:42:59;;;;;;;;;;;21.90;99.90;;;;;;5016701;28;20420;-82
2022/08/26 11:45:38;;;;;;;;;;;22.00;99.90;;;;;;5016081;28;20403;-84
2022/08/26 11:48:18;;;;;;;;;;;22.00;99.90;;;;;;5034399;28;20020;-83
2022/08/26 11:50:58;;;;;;;;;;;22.00;99.90;;;;;;5039648;28;19928;-82
2022/08/26 11:53:24;;;;;;;;;;;22.00;99.90;;;;;;5028093;28;19998;-84
2022/08/26 11:55:51;;;;;;;;;;;21.90;99.90;;;;;;5022834;28;19921;-84
2022/08/26 11:58:18;;;;;;;;;;;21.80;99.90;;;;;;5019648;28;19921;-82
2022/08/26 12:00:58;;;;;;;;;;;21.80;99.90;;;;;;5017985;28;20402;-84
2022/08/26 12:03:46;;;;;;;;;;;21.70;99.90;;;;;;5035131;28;19928;-85
2022/08/26 12:06:20;;;;;;;;;;;21.70;99.90;;;;;;5012446;28;19921;-83
2022/08/26 12:08:46;;;;;;;;;;;21.50;99.90;;;;;;5032055;28;19904;-83
2022/08/26 12:11:19;;;;;;;;;;;21.50;99.90;;;;;;5044482;28;19928;-84
2022/08/26 12:13:52;;;;;;;;;;;21.40;99.90;;;;;;5034115;28;19924;-84
2022/08/26 12:16:21;;;;;;;;;;;21.30;99.90;;;;;;5015340;28;19925;-83
2022/08/26 12:18:48;;;;;;;;;;;21.30;99.90;;;;;;5016011;28;19921;-83
2022/08/26 12:21:20;;;;;;;;;;;21.20;99.90;;;;;;5016347;28;20377;-84
2022/08/26 12:23:48;;;;;;;;;;;21.20;99.90;;;;;;5015131;28;20262;-83
2022/08/26 12:26:29;;;;;;;;;;;21.20;99.90;;;;;;5033062;28;19921;-83
2022/08/26 12:29:26;;;;;;;;;;;21.20;99.90;;;;;;5033762;28;19921;-84
2022/08/26 12:32:05;;;;;;;;;;;21.20;99.90;;;;;;4993031;28;19928;-83
2022/08/26 12:34:31;;;;;;;;;;;21.10;99.90;;;;;;5015628;28;20436;-83
2022/08/26 12:36:58;;;;;;;;;;;21.20;99.90;;;;;;5014940;28;19971;-84
2022/08/26 12:39:24;;;;;;;;;;;21.10;99.90;;;;;;5016218;28;19921;-83
2022/08/26 12:41:53;;;;;;;;;;;21.00;99.90;;;;;;5032729;28;19925;-83
2022/08/26 12:44:39;;;;;;;;;;;21.00;99.90;;;;;;5014625;28;20403;-84
2022/08/26 12:47:07;;;;;;;;;;;20.90;99.90;;;;;;5033450;28;19921;-83
2022/08/26 12:49:33;;;;;;;;;;;20.90;99.90;;;;;;5015751;28;19921;-83
2022/08/26 12:51:59;;;;;;;;;;;20.90;99.90;;;;;;5014879;28;19943;-84
2022/08/26 12:54:57;;;;;;;;;;;20.80;99.90;;;;;;5014924;28;19921;-84
2022/08/26 12:57:12;;;;;;;;;;;20.90;99.90;;;;;;5014863;28;19951;-83
2022/08/26 12:59:38;;;;;;;;;;;20.90;99.90;;;;;;5032234;28;19932;-83
2022/08/26 13:02:03;;;;;;;;;;;20.80;99.90;;;;;;5033585;28;19924;-83
2022/08/26 13:04:38;;;;;;;;;;;20.80;99.90;;;;;;5015338;28;20376;-84
2022/08/26 13:07:24;;;;;;;;;;;20.90;99.90;;;;;;5014881;28;20288;-85
2022/08/26 13:09:50;;;;;;;;;;;20.90;99.90;;;;;;5032344;28;19928;-84
2022/08/26 13:12:42;;;;;;;;;;;21.00;99.90;;;;;;5014248;28;19925;-84
2022/08/26 13:15:08;;;;;;;;;;;21.00;99.90;;;;;;5030803;28;20377;-83
2022/08/26 13:17:34;;;;;;;;;;;21.10;99.90;;;;;;5033182;28;20047;-84
2022/08/26 13:20:00;;;;;;;;;;;21.00;99.90;;;;;;5022431;28;20360;-85
2022/08/26 13:22:26;;;;;;;;;;;21.00;99.90;;;;;;5033594;28;19932;-84
2022/08/26 13:24:53;;;;;;;;;;;20.90;99.90;;;;;;5032026;28;19920;-84
2022/08/26 13:27:20;;;;;;;;;;;20.90;99.90;;;;;;5014642;28;20011;-83
2022/08/26 13:29:46;;;;;;;;;;;20.90;99.90;;;;;;5015155;28;20012;-84
2022/08/26 13:32:12;;;;;;;;;;;20.80;99.90;;;;;;5033212;28;20030;-84
2022/08/26 13:34:38;;;;;;;;;;;20.80;99.90;;;;;;5031806;28;20395;-84
2022/08/26 13:37:04;;;;;;;;;;;20.70;99.90;;;;;;5033426;28;20003;-84
2022/08/26 13:39:29;;;;;;;;;;;20.80;99.90;;;;;;5019230;28;19921;-85
2022/08/26 13:41:55;;;;;;;;;;;20.90;99.90;;;;;;5049857;28;19921;-84
2022/08/26 13:44:20;;;;;;;;;;;21.00;99.90;;;;;;5021442;28;19921;-83
2022/08/26 13:46:46;;;;;;;;;;;21.00;99.90;;;;;;5032550;28;19928;-83
2022/08/26 13:49:12;;;;;;;;;;;21.00;99.90;;;;;;5014513;28;19921;-85
2022/08/26 13:51:38;;;;;;;;;;;21.00;99.90;;;;;;5014920;28;20015;-85
2022/08/26 13:54:03;;;;;;;;;;;20.90;99.90;;;;;;5015231;28;19921;-84
2022/08/26 13:56:30;;;;;;;;;;;21.00;99.90;;;;;;5013688;28;19921;-84
2022/08/26 13:58:56;;;;;;;;;;;21.00;99.90;;;;;;5032788;28;19948;-84
2022/08/26 14:01:22;;;;;;;;;;;20.90;99.90;;;;;;5015302;28;20368;-85
2022/08/26 14:03:47;;;;;;;;;;;20.90;99.90;;;;;;5032882;28;19972;-85
2022/08/26 14:06:13;;;;;;;;;;;20.90;99.90;;;;;;5015027;28;20384;-84
2022/08/26 14:08:39;;;;;;;;;;;20.90;99.90;;;;;;5013853;28;20265;-84
2022/08/26 14:11:05;;;;;;;;;;;20.80;99.90;;;;;;5014536;28;19939;-90
2022/08/26 14:13:32;;;;;;;;;;;20.80;99.90;;;;;;5017185;28;19929;-87
2022/08/26 14:16:00;;;;;;;;;;;20.70;99.90;;;;;;5014410;28;19920;-87
2022/08/26 14:18:37;;;;;;;;;;;20.70;99.90;;;;;;5014585;28;19937;-87
2022/08/26 14:21:03;;;;;;;;;;;20.70;99.90;;;;;;5033490;28;19920;-86
2022/08/26 14:23:29;;;;;;;;;;;20.60;99.90;;;;;;5033406;28;19921;-84
2022/08/26 14:25:54;;;;;;;;;;;20.60;99.90;;;;;;5036754;28;20308;-88
2022/08/26 14:28:20;;;;;;;;;;;20.60;99.90;;;;;;5034711;28;19972;-82
2022/08/26 14:30:51;;;;;;;;;;;20.60;99.90;;;;;;5026486;28;19924;-80